sensor_id;sensor_type;location;lat;lon;timestamp;temperature;humidity
71668;DHT22;59504;54.806;9.640;2022-08-19T00:01:08;19.70;73.60
71668;DHT22;59504;54.806;9.640;2022-08-19T00:03:09;19.70;73.60
71668;DHT22;59504;54.806;9.640;2022-08-19T00:05:11;19.70;73.70
71668;DHT22;59504;54.806;9.640;2022-08-19T00:07:12;19.70;73.70
71668;DHT22;59504;54.806;9.640;2022-08-19T00:09:16;19.70;73.80
71668;DHT22;59504;54.806;9.640;2022-08-19T00:11:17;19.70;73.80
71668;DHT22;59504;54.806;9.640;2022-08-19T00:13:18;19.70;73.90
71668;DHT22;59504;54.806;9.640;2022-08-19T00:15:21;19.70;73.90
71668;DHT22;59504;54.806;9.640;2022-08-19T00:17:22;19.70;74.10
71668;DHT22;59504;54.806;9.640;2022-08-19T00:19:23;19.60;74.10
71668;DHT22;59504;54.806;9.640;2022-08-19T00:21:25;19.60;74.20
71668;DHT22;59504;54.806;9.640;2022-08-19T00:23:27;19.60;74.40
71668;DHT22;59504;54.806;9.640;2022-08-19T00:25:28;19.60;74.40
71668;DHT22;59504;54.806;9.640;2022-08-19T00:27:29;19.60;74.40
71668;DHT22;59504;54.806;9.640;2022-08-19T00:29:30;19.60;74.50
71668;DHT22;59504;54.806;9.640;2022-08-19T00:31:31;19.60;74.60
71668;DHT22;59504;54.806;9.640;2022-08-19T00:33:33;19.60;74.60
71668;DHT22;59504;54.806;9.640;2022-08-19T00:35:34;19.60;74.60
71668;DHT22;59504;54.806;9.640;2022-08-19T00:37:35;19.60;74.70
71668;DHT22;59504;54.806;9.640;2022-08-19T00:39:35;19.60;74.80
71668;DHT22;59504;54.806;9.640;2022-08-19T00:41:36;19.60;74.90
71668;DHT22;59504;54.806;9.640;2022-08-19T00:43:37;19.60;75.00
71668;DHT22;59504;54.806;9.640;2022-08-19T00:45:39;19.50;75.00
71668;DHT22;59504;54.806;9.640;2022-08-19T00:47:43;19.50;75.10
71668;DHT22;59504;54.806;9.640;2022-08-19T00:49:48;19.50;75.20
71668;DHT22;59504;54.806;9.640;2022-08-19T00:51:58;19.50;75.40
71668;DHT22;59504;54.806;9.640;2022-08-19T00:54:02;19.50;75.50
71668;DHT22;59504;54.806;9.640;2022-08-19T00:56:03;19.50;75.60
71668;DHT22;59504;54.806;9.640;2022-08-19T00:58:07;19.50;75.70
71668;DHT22;59504;54.806;9.640;2022-08-19T01:00:12;19.50;75.80
71668;DHT22;59504;54.806;9.640;2022-08-19T01:02:15;19.60;75.60
71668;DHT22;59504;54.806;9.640;2022-08-19T01:04:16;19.50;75.70
71668;DHT22;59504;54.806;9.640;2022-08-19T01:06:17;19.50;75.90
71668;DHT22;59504;54.806;9.640;2022-08-19T01:08:19;19.50;75.90
71668;DHT22;59504;54.806;9.640;2022-08-19T01:10:26;19.50;76.20
71668;DHT22;59504;54.806;9.640;2022-08-19T01:12:27;19.50;76.30
71668;DHT22;59504;54.806;9.640;2022-08-19T01:14:29;19.50;76.30
71668;DHT22;59504;54.806;9.640;2022-08-19T01:16:31;19.50;76.30
71668;DHT22;59504;54.806;9.640;2022-08-19T01:18:36;19.50;76.30
71668;DHT22;59504;54.806;9.640;2022-08-19T01:20:40;19.60;76.40
71668;DHT22;59504;54.806;9.640;2022-08-19T01:22:55;19.60;76.30
71668;DHT22;59504;54.806;9.640;2022-08-19T01:24:56;19.60;76.50
71668;DHT22;59504;54.806;9.640;2022-08-19T01:26:57;19.60;75.80
71668;DHT22;59504;54.806;9.640;2022-08-19T01:28:59;19.60;75.80
71668;DHT22;59504;54.806;9.640;2022-08-19T01:31:01;19.60;75.80
71668;DHT22;59504;54.806;9.640;2022-08-19T01:33:02;19.60;75.70
71668;DHT22;59504;54.806;9.640;2022-08-19T01:35:06;19.50;75.70
71668;DHT22;59504;54.806;9.640;2022-08-19T01:37:11;19.60;75.70
71668;DHT22;59504;54.806;9.640;2022-08-19T01:39:15;19.50;75.60
71668;DHT22;59504;54.806;9.640;2022-08-19T01:41:17;19.50;75.50
71668;DHT22;59504;54.806;9.640;2022-08-19T01:43:18;19.50;75.40
71668;DHT22;59504;54.806;9.640;2022-08-19T01:45:21;19.50;75.50
71668;DHT22;59504;54.806;9.640;2022-08-19T01:47:22;19.50;75.50
71668;DHT22;59504;54.806;9.640;2022-08-19T01:49:24;19.50;75.50
71668;DHT22;59504;54.806;9.640;2022-08-19T01:51:27;19.40;75.40
71668;DHT22;59504;54.806;9.640;2022-08-19T01:53:28;19.40;75.60
71668;DHT22;59504;54.806;9.640;2022-08-19T01:55:29;19.40;75.60
71668;DHT22;59504;54.806;9.640;2022-08-19T01:57:30;19.40;75.70
71668;DHT22;59504;54.806;9.640;2022-08-19T01:59:32;19.50;75.70
71668;DHT22;59504;54.806;9.640;2022-08-19T02:01:33;19.40;75.70
71668;DHT22;59504;54.806;9.640;2022-08-19T02:03:35;19.40;75.70
71668;DHT22;59504;54.806;9.640;2022-08-19T02:05:35;19.40;75.70
71668;DHT22;59504;54.806;9.640;2022-08-19T02:07:38;19.40;75.70
71668;DHT22;59504;54.806;9.640;2022-08-19T02:09:39;19.40;75.50
71668;DHT22;59504;54.806;9.640;2022-08-19T02:11:41;19.40;75.50
71668;DHT22;59504;54.806;9.640;2022-08-19T02:13:42;19.40;75.40
71668;DHT22;59504;54.806;9.640;2022-08-19T02:15:43;19.40;75.40
71668;DHT22;59504;54.806;9.640;2022-08-19T02:17:44;19.40;75.50
71668;DHT22;59504;54.806;9.640;2022-08-19T02:19:44;19.40;75.60
71668;DHT22;59504;54.806;9.640;2022-08-19T02:21:45;19.40;75.60
71668;DHT22;59504;54.806;9.640;2022-08-19T02:23:46;19.40;75.70
71668;DHT22;59504;54.806;9.640;2022-08-19T02:25:48;19.40;75.70
71668;DHT22;59504;54.806;9.640;2022-08-19T02:27:48;19.40;75.70
71668;DHT22;59504;54.806;9.640;2022-08-19T02:29:50;19.40;75.70
71668;DHT22;59504;54.806;9.640;2022-08-19T02:31:51;19.30;75.40
71668;DHT22;59504;54.806;9.640;2022-08-19T02:33:54;19.40;75.40
71668;DHT22;59504;54.806;9.640;2022-08-19T02:35:55;19.40;75.30
71668;DHT22;59504;54.806;9.640;2022-08-19T02:37:56;19.30;75.10
71668;DHT22;59504;54.806;9.640;2022-08-19T02:40:16;19.30;75.00
71668;DHT22;59504;54.806;9.640;2022-08-19T02:42:18;19.30;74.80
71668;DHT22;59504;54.806;9.640;2022-08-19T02:44:19;19.30;74.80
71668;DHT22;59504;54.806;9.640;2022-08-19T02:46:22;19.20;74.80
71668;DHT22;59504;54.806;9.640;2022-08-19T02:48:25;19.20;74.80
71668;DHT22;59504;54.806;9.640;2022-08-19T02:50:26;19.20;74.80
71668;DHT22;59504;54.806;9.640;2022-08-19T02:52:26;19.20;74.80
71668;DHT22;59504;54.806;9.640;2022-08-19T02:54:27;19.10;74.70
71668;DHT22;59504;54.806;9.640;2022-08-19T02:56:28;19.10;74.70
71668;DHT22;59504;54.806;9.640;2022-08-19T02:58:30;19.10;74.80
71668;DHT22;59504;54.806;9.640;2022-08-19T03:00:31;19.00;74.70
71668;DHT22;59504;54.806;9.640;2022-08-19T03:02:32;19.00;74.70
71668;DHT22;59504;54.806;9.640;2022-08-19T03:04:33;19.00;74.80
71668;DHT22;59504;54.806;9.640;2022-08-19T03:06:36;18.90;74.80
71668;DHT22;59504;54.806;9.640;2022-08-19T03:08:38;18.90;75.00
71668;DHT22;59504;54.806;9.640;2022-08-19T03:10:46;18.90;75.10
71668;DHT22;59504;54.806;9.640;2022-08-19T03:12:47;18.90;75.10
71668;DHT22;59504;54.806;9.640;2022-08-19T03:14:48;18.90;75.20
71668;DHT22;59504;54.806;9.640;2022-08-19T03:16:50;18.80;75.20
71668;DHT22;59504;54.806;9.640;2022-08-19T03:18:52;18.80;75.30
71668;DHT22;59504;54.806;9.640;2022-08-19T03:20:54;18.80;75.20
71668;DHT22;59504;54.806;9.640;2022-08-19T03:22:54;18.80;75.30
71668;DHT22;59504;54.806;9.640;2022-08-19T03:24:56;18.80;75.30
71668;DHT22;59504;54.806;9.640;2022-08-19T03:26:56;18.70;75.30
71668;DHT22;59504;54.806;9.640;2022-08-19T03:29:02;18.70;75.30
71668;DHT22;59504;54.806;9.640;2022-08-19T03:31:09;18.70;75.40
71668;DHT22;59504;54.806;9.640;2022-08-19T03:33:11;18.70;75.50
71668;DHT22;59504;54.806;9.640;2022-08-19T03:35:14;18.70;75.50
71668;DHT22;59504;54.806;9.640;2022-08-19T03:37:15;18.60;75.50
71668;DHT22;59504;54.806;9.640;2022-08-19T03:39:16;18.60;75.50
71668;DHT22;59504;54.806;9.640;2022-08-19T03:41:32;18.60;75.60
71668;DHT22;59504;54.806;9.640;2022-08-19T03:43:35;18.60;75.80
71668;DHT22;59504;54.806;9.640;2022-08-19T03:45:36;18.60;75.70
71668;DHT22;59504;54.806;9.640;2022-08-19T03:47:37;18.50;75.80
71668;DHT22;59504;54.806;9.640;2022-08-19T03:49:38;18.50;75.80
71668;DHT22;59504;54.806;9.640;2022-08-19T03:51:38;18.50;75.90
71668;DHT22;59504;54.806;9.640;2022-08-19T03:53:39;18.50;76.00
71668;DHT22;59504;54.806;9.640;2022-08-19T03:55:40;18.50;76.00
71668;DHT22;59504;54.806;9.640;2022-08-19T03:57:41;18.50;76.20
71668;DHT22;59504;54.806;9.640;2022-08-19T03:59:42;18.40;76.20
71668;DHT22;59504;54.806;9.640;2022-08-19T04:01:43;18.40;76.20
71668;DHT22;59504;54.806;9.640;2022-08-19T04:03:44;18.40;76.40
71668;DHT22;59504;54.806;9.640;2022-08-19T04:05:46;18.40;76.40
71668;DHT22;59504;54.806;9.640;2022-08-19T04:07:47;18.40;76.40
71668;DHT22;59504;54.806;9.640;2022-08-19T04:09:48;18.40;76.50
71668;DHT22;59504;54.806;9.640;2022-08-19T04:11:52;18.30;76.40
71668;DHT22;59504;54.806;9.640;2022-08-19T04:14:19;18.40;76.50
71668;DHT22;59504;54.806;9.640;2022-08-19T04:16:40;18.30;76.50
71668;DHT22;59504;54.806;9.640;2022-08-19T04:19:02;18.30;76.50
71668;DHT22;59504;54.806;9.640;2022-08-19T04:21:04;18.30;76.30
71668;DHT22;59504;54.806;9.640;2022-08-19T04:23:04;18.30;76.60
71668;DHT22;59504;54.806;9.640;2022-08-19T04:25:05;18.30;76.70
71668;DHT22;59504;54.806;9.640;2022-08-19T04:27:06;18.30;76.90
71668;DHT22;59504;54.806;9.640;2022-08-19T04:29:14;18.30;77.00
71668;DHT22;59504;54.806;9.640;2022-08-19T04:31:21;18.30;77.10
71668;DHT22;59504;54.806;9.640;2022-08-19T04:33:24;18.30;77.10
71668;DHT22;59504;54.806;9.640;2022-08-19T04:35:25;18.30;77.30
71668;DHT22;59504;54.806;9.640;2022-08-19T04:37:27;18.30;77.20
71668;DHT22;59504;54.806;9.640;2022-08-19T04:39:30;18.30;77.30
71668;DHT22;59504;54.806;9.640;2022-08-19T04:41:49;18.20;77.30
71668;DHT22;59504;54.806;9.640;2022-08-19T04:44:09;18.20;77.30
71668;DHT22;59504;54.806;9.640;2022-08-19T04:46:11;18.30;77.50
71668;DHT22;59504;54.806;9.640;2022-08-19T04:48:13;18.30;77.50
71668;DHT22;59504;54.806;9.640;2022-08-19T04:50:13;18.30;77.50
71668;DHT22;59504;54.806;9.640;2022-08-19T04:52:14;18.30;77.50
71668;DHT22;59504;54.806;9.640;2022-08-19T04:54:17;18.30;77.60
71668;DHT22;59504;54.806;9.640;2022-08-19T04:56:20;18.30;77.50
71668;DHT22;59504;54.806;9.640;2022-08-19T04:58:24;18.30;77.50
71668;DHT22;59504;54.806;9.640;2022-08-19T05:00:25;18.30;77.40
71668;DHT22;59504;54.806;9.640;2022-08-19T05:02:26;18.30;77.30
71668;DHT22;59504;54.806;9.640;2022-08-19T05:04:27;18.30;77.30
71668;DHT22;59504;54.806;9.640;2022-08-19T05:06:34;18.30;78.00
71668;DHT22;59504;54.806;9.640;2022-08-19T05:08:36;18.40;77.30
71668;DHT22;59504;54.806;9.640;2022-08-19T05:10:38;18.30;77.20
71668;DHT22;59504;54.806;9.640;2022-08-19T05:12:40;18.30;77.30
71668;DHT22;59504;54.806;9.640;2022-08-19T05:14:40;18.40;77.30
71668;DHT22;59504;54.806;9.640;2022-08-19T05:16:41;18.40;77.40
71668;DHT22;59504;54.806;9.640;2022-08-19T05:18:56;18.40;77.30
71668;DHT22;59504;54.806;9.640;2022-08-19T05:21:35;18.40;77.40
71668;DHT22;59504;54.806;9.640;2022-08-19T05:26:48;18.40;77.30
71668;DHT22;59504;54.806;9.640;2022-08-19T05:29:37;18.40;77.00
71668;DHT22;59504;54.806;9.640;2022-08-19T05:32:19;18.40;77.10
71668;DHT22;59504;54.806;9.640;2022-08-19T05:35:14;18.30;77.10
71668;DHT22;59504;54.806;9.640;2022-08-19T05:37:22;18.50;77.10
71668;DHT22;59504;54.806;9.640;2022-08-19T05:39:59;18.40;77.10
71668;DHT22;59504;54.806;9.640;2022-08-19T05:42:05;18.40;77.10
71668;DHT22;59504;54.806;9.640;2022-08-19T05:44:17;18.40;77.10
71668;DHT22;59504;54.806;9.640;2022-08-19T05:46:20;18.40;77.10
71668;DHT22;59504;54.806;9.640;2022-08-19T05:51:49;18.50;77.30
71668;DHT22;59504;54.806;9.640;2022-08-19T05:54:01;18.40;77.10
71668;DHT22;59504;54.806;9.640;2022-08-19T05:56:07;18.40;77.30
71668;DHT22;59504;54.806;9.640;2022-08-19T05:58:17;18.40;77.30
71668;DHT22;59504;54.806;9.640;2022-08-19T06:00:18;18.40;77.30
71668;DHT22;59504;54.806;9.640;2022-08-19T06:02:21;18.40;77.30
71668;DHT22;59504;54.806;9.640;2022-08-19T06:04:30;18.40;77.30
71668;DHT22;59504;54.806;9.640;2022-08-19T06:06:33;18.40;77.20
71668;DHT22;59504;54.806;9.640;2022-08-19T06:08:38;18.40;77.30
71668;DHT22;59504;54.806;9.640;2022-08-19T06:10:49;18.40;77.30
71668;DHT22;59504;54.806;9.640;2022-08-19T06:40:00;18.50;77.80
71668;DHT22;59504;54.806;9.640;2022-08-19T06:45:45;18.50;78.10
71668;DHT22;59504;54.806;9.640;2022-08-19T06:47:46;18.40;77.80
71668;DHT22;59504;54.806;9.640;2022-08-19T06:49:48;18.50;78.00
71668;DHT22;59504;54.806;9.640;2022-08-19T06:51:49;18.40;78.10
71668;DHT22;59504;54.806;9.640;2022-08-19T06:53:53;18.50;78.10
71668;DHT22;59504;54.806;9.640;2022-08-19T06:55:54;18.50;78.10
71668;DHT22;59504;54.806;9.640;2022-08-19T06:58:04;18.50;78.10
71668;DHT22;59504;54.806;9.640;2022-08-19T07:00:06;18.50;77.90
71668;DHT22;59504;54.806;9.640;2022-08-19T07:02:10;18.50;78.00
71668;DHT22;59504;54.806;9.640;2022-08-19T07:04:12;18.40;78.00
71668;DHT22;59504;54.806;9.640;2022-08-19T07:06:15;18.50;78.10
71668;DHT22;59504;54.806;9.640;2022-08-19T07:08:17;18.50;78.20
71668;DHT22;59504;54.806;9.640;2022-08-19T07:10:18;18.50;78.30
71668;DHT22;59504;54.806;9.640;2022-08-19T07:12:19;18.50;78.40
71668;DHT22;59504;54.806;9.640;2022-08-19T07:14:24;18.50;78.40
71668;DHT22;59504;54.806;9.640;2022-08-19T07:16:26;18.50;78.60
71668;DHT22;59504;54.806;9.640;2022-08-19T07:18:27;18.50;78.60
71668;DHT22;59504;54.806;9.640;2022-08-19T07:20:28;18.50;78.70
71668;DHT22;59504;54.806;9.640;2022-08-19T07:22:29;18.50;78.80
71668;DHT22;59504;54.806;9.640;2022-08-19T07:24:50;18.50;78.90
71668;DHT22;59504;54.806;9.640;2022-08-19T07:27:10;18.50;78.90
71668;DHT22;59504;54.806;9.640;2022-08-19T07:29:35;18.50;78.90
71668;DHT22;59504;54.806;9.640;2022-08-19T07:31:57;18.50;78.80
71668;DHT22;59504;54.806;9.640;2022-08-19T07:34:19;18.50;78.80
71668;DHT22;59504;54.806;9.640;2022-08-19T07:36:22;18.50;78.90
71668;DHT22;59504;54.806;9.640;2022-08-19T07:38:23;18.50;79.00
71668;DHT22;59504;54.806;9.640;2022-08-19T07:40:24;18.50;79.10
71668;DHT22;59504;54.806;9.640;2022-08-19T07:42:25;18.50;79.10
71668;DHT22;59504;54.806;9.640;2022-08-19T07:44:26;18.50;79.30
71668;DHT22;59504;54.806;9.640;2022-08-19T07:46:26;18.50;79.40
71668;DHT22;59504;54.806;9.640;2022-08-19T07:48:28;18.50;79.30
71668;DHT22;59504;54.806;9.640;2022-08-19T07:50:29;18.50;79.40
71668;DHT22;59504;54.806;9.640;2022-08-19T07:52:30;18.50;79.50
71668;DHT22;59504;54.806;9.640;2022-08-19T07:54:34;18.50;79.70
71668;DHT22;59504;54.806;9.640;2022-08-19T07:56:35;18.50;79.80
71668;DHT22;59504;54.806;9.640;2022-08-19T07:58:40;18.50;79.90
71668;DHT22;59504;54.806;9.640;2022-08-19T08:00:43;18.50;79.90
71668;DHT22;59504;54.806;9.640;2022-08-19T08:02:44;18.50;79.90
71668;DHT22;59504;54.806;9.640;2022-08-19T08:04:45;18.50;79.90
71668;DHT22;59504;54.806;9.640;2022-08-19T08:07:05;18.50;79.90
71668;DHT22;59504;54.806;9.640;2022-08-19T08:09:36;18.60;79.90
71668;DHT22;59504;54.806;9.640;2022-08-19T08:11:38;18.60;80.00
71668;DHT22;59504;54.806;9.640;2022-08-19T08:13:39;18.60;80.70
71668;DHT22;59504;54.806;9.640;2022-08-19T08:15:41;18.60;79.80
71668;DHT22;59504;54.806;9.640;2022-08-19T08:17:43;18.60;79.80
71668;DHT22;59504;54.806;9.640;2022-08-19T08:19:44;18.60;79.80
71668;DHT22;59504;54.806;9.640;2022-08-19T08:21:45;18.60;79.80
71668;DHT22;59504;54.806;9.640;2022-08-19T08:23:46;18.60;79.70
71668;DHT22;59504;54.806;9.640;2022-08-19T08:25:47;18.60;79.70
71668;DHT22;59504;54.806;9.640;2022-08-19T08:27:49;18.60;79.60
71668;DHT22;59504;54.806;9.640;2022-08-19T08:29:50;18.60;79.70
71668;DHT22;59504;54.806;9.640;2022-08-19T08:31:51;18.50;79.80
71668;DHT22;59504;54.806;9.640;2022-08-19T08:33:52;18.50;79.70
71668;DHT22;59504;54.806;9.640;2022-08-19T08:35:53;18.50;79.80
71668;DHT22;59504;54.806;9.640;2022-08-19T08:37:54;18.60;79.90
71668;DHT22;59504;54.806;9.640;2022-08-19T08:39:58;18.50;79.90
71668;DHT22;59504;54.806;9.640;2022-08-19T08:42:14;18.60;80.00
71668;DHT22;59504;54.806;9.640;2022-08-19T08:44:22;18.60;79.90
71668;DHT22;59504;54.806;9.640;2022-08-19T08:46:39;18.50;79.80
71668;DHT22;59504;54.806;9.640;2022-08-19T08:48:51;18.60;79.90
71668;DHT22;59504;54.806;9.640;2022-08-19T08:50:55;18.60;80.10
71668;DHT22;59504;54.806;9.640;2022-08-19T08:52:57;18.60;80.10
71668;DHT22;59504;54.806;9.640;2022-08-19T08:55:00;18.60;80.10
71668;DHT22;59504;54.806;9.640;2022-08-19T08:57:07;18.60;80.20
71668;DHT22;59504;54.806;9.640;2022-08-19T08:59:35;18.60;80.30
71668;DHT22;59504;54.806;9.640;2022-08-19T09:01:37;18.60;80.40
71668;DHT22;59504;54.806;9.640;2022-08-19T09:03:40;18.60;80.10
71668;DHT22;59504;54.806;9.640;2022-08-19T09:12:25;18.70;80.30
71668;DHT22;59504;54.806;9.640;2022-08-19T09:14:53;18.70;80.20
71668;DHT22;59504;54.806;9.640;2022-08-19T09:16:57;18.70;80.40
71668;DHT22;59504;54.806;9.640;2022-08-19T09:19:03;18.80;80.30
71668;DHT22;59504;54.806;9.640;2022-08-19T09:21:04;18.70;80.30
71668;DHT22;59504;54.806;9.640;2022-08-19T09:23:04;18.80;80.40
71668;DHT22;59504;54.806;9.640;2022-08-19T09:25:08;18.80;80.50
71668;DHT22;59504;54.806;9.640;2022-08-19T09:27:09;18.80;80.40
71668;DHT22;59504;54.806;9.640;2022-08-19T09:29:10;18.90;80.50
71668;DHT22;59504;54.806;9.640;2022-08-19T09:31:16;18.90;80.50
71668;DHT22;59504;54.806;9.640;2022-08-19T09:33:17;18.90;80.50
71668;DHT22;59504;54.806;9.640;2022-08-19T09:35:18;19.00;80.60
71668;DHT22;59504;54.806;9.640;2022-08-19T09:37:20;19.00;80.30
71668;DHT22;59504;54.806;9.640;2022-08-19T09:39:22;19.00;80.30
71668;DHT22;59504;54.806;9.640;2022-08-19T09:41:24;19.10;80.30
71668;DHT22;59504;54.806;9.640;2022-08-19T09:43:25;19.00;80.20
71668;DHT22;59504;54.806;9.640;2022-08-19T09:45:28;19.10;80.30
71668;DHT22;59504;54.806;9.640;2022-08-19T09:47:29;19.10;80.10
71668;DHT22;59504;54.806;9.640;2022-08-19T09:49:30;19.10;79.90
71668;DHT22;59504;54.806;9.640;2022-08-19T09:51:31;19.20;79.70
71668;DHT22;59504;54.806;9.640;2022-08-19T09:53:33;19.30;79.70
71668;DHT22;59504;54.806;9.640;2022-08-19T09:55:34;19.20;79.30
71668;DHT22;59504;54.806;9.640;2022-08-19T09:57:35;19.20;79.20
71668;DHT22;59504;54.806;9.640;2022-08-19T09:59:36;19.30;79.10
71668;DHT22;59504;54.806;9.640;2022-08-19T10:01:37;19.30;78.90
71668;DHT22;59504;54.806;9.640;2022-08-19T10:03:38;19.30;78.80
71668;DHT22;59504;54.806;9.640;2022-08-19T10:05:38;19.30;78.70
71668;DHT22;59504;54.806;9.640;2022-08-19T10:07:48;19.30;78.60
71668;DHT22;59504;54.806;9.640;2022-08-19T10:09:49;19.30;78.70
71668;DHT22;59504;54.806;9.640;2022-08-19T10:11:50;19.30;78.70
71668;DHT22;59504;54.806;9.640;2022-08-19T10:13:50;19.40;78.60
71668;DHT22;59504;54.806;9.640;2022-08-19T10:16:01;19.40;78.40
71668;DHT22;59504;54.806;9.640;2022-08-19T10:18:03;19.40;78.30
71668;DHT22;59504;54.806;9.640;2022-08-19T10:20:04;19.40;78.30
71668;DHT22;59504;54.806;9.640;2022-08-19T10:22:06;19.40;78.30
71668;DHT22;59504;54.806;9.640;2022-08-19T10:24:07;19.50;78.30
71668;DHT22;59504;54.806;9.640;2022-08-19T10:26:08;19.50;78.20
71668;DHT22;59504;54.806;9.640;2022-08-19T10:28:09;19.50;78.20
71668;DHT22;59504;54.806;9.640;2022-08-19T10:30:12;19.60;78.20
71668;DHT22;59504;54.806;9.640;2022-08-19T10:32:13;19.60;78.10
71668;DHT22;59504;54.806;9.640;2022-08-19T10:34:14;19.70;78.00
71668;DHT22;59504;54.806;9.640;2022-08-19T10:36:21;19.70;77.90
71668;DHT22;59504;54.806;9.640;2022-08-19T10:38:23;19.80;77.70
71668;DHT22;59504;54.806;9.640;2022-08-19T10:40:27;19.80;77.60
71668;DHT22;59504;54.806;9.640;2022-08-19T10:42:28;19.80;77.50
71668;DHT22;59504;54.806;9.640;2022-08-19T10:44:28;19.90;77.30
71668;DHT22;59504;54.806;9.640;2022-08-19T10:46:31;19.90;76.90
71668;DHT22;59504;54.806;9.640;2022-08-19T10:48:33;20.00;76.80
71668;DHT22;59504;54.806;9.640;2022-08-19T10:50:36;20.00;76.60
71668;DHT22;59504;54.806;9.640;2022-08-19T10:52:55;20.10;76.10
71668;DHT22;59504;54.806;9.640;2022-08-19T10:54:56;20.10;75.90
71668;DHT22;59504;54.806;9.640;2022-08-19T10:57:15;20.10;75.60
71668;DHT22;59504;54.806;9.640;2022-08-19T10:59:20;20.20;75.70
71668;DHT22;59504;54.806;9.640;2022-08-19T11:01:21;20.20;75.50
71668;DHT22;59504;54.806;9.640;2022-08-19T11:03:23;20.30;75.40
71668;DHT22;59504;54.806;9.640;2022-08-19T11:05:24;20.30;75.10
71668;DHT22;59504;54.806;9.640;2022-08-19T11:07:25;20.40;74.70
71668;DHT22;59504;54.806;9.640;2022-08-19T11:09:26;20.40;74.60
71668;DHT22;59504;54.806;9.640;2022-08-19T11:11:28;20.50;74.50
71668;DHT22;59504;54.806;9.640;2022-08-19T11:13:34;20.50;74.20
71668;DHT22;59504;54.806;9.640;2022-08-19T11:15:36;20.50;74.10
71668;DHT22;59504;54.806;9.640;2022-08-19T11:17:41;20.60;73.80
71668;DHT22;59504;54.806;9.640;2022-08-19T11:19:43;20.60;73.60
71668;DHT22;59504;54.806;9.640;2022-08-19T11:21:46;20.70;73.50
71668;DHT22;59504;54.806;9.640;2022-08-19T11:23:52;20.70;73.20
71668;DHT22;59504;54.806;9.640;2022-08-19T11:25:53;20.80;73.00
71668;DHT22;59504;54.806;9.640;2022-08-19T11:27:53;20.80;72.70
71668;DHT22;59504;54.806;9.640;2022-08-19T11:29:54;20.80;72.60
71668;DHT22;59504;54.806;9.640;2022-08-19T11:31:55;20.90;72.50
71668;DHT22;59504;54.806;9.640;2022-08-19T11:33:57;20.90;72.20
71668;DHT22;59504;54.806;9.640;2022-08-19T11:36:00;20.90;72.10
71668;DHT22;59504;54.806;9.640;2022-08-19T11:38:01;21.00;72.00
71668;DHT22;59504;54.806;9.640;2022-08-19T11:40:04;21.00;71.90
71668;DHT22;59504;54.806;9.640;2022-08-19T11:42:08;21.10;71.80
71668;DHT22;59504;54.806;9.640;2022-08-19T11:44:31;21.10;71.60
71668;DHT22;59504;54.806;9.640;2022-08-19T11:46:32;21.10;71.40
71668;DHT22;59504;54.806;9.640;2022-08-19T11:48:37;21.20;70.80
71668;DHT22;59504;54.806;9.640;2022-08-19T11:50:40;21.20;70.80
71668;DHT22;59504;54.806;9.640;2022-08-19T11:52:43;21.20;70.70
71668;DHT22;59504;54.806;9.640;2022-08-19T11:54:46;21.30;70.80
71668;DHT22;59504;54.806;9.640;2022-08-19T11:56:50;21.30;70.70
71668;DHT22;59504;54.806;9.640;2022-08-19T11:58:52;21.40;70.50
71668;DHT22;59504;54.806;9.640;2022-08-19T12:00:53;21.30;69.90
71668;DHT22;59504;54.806;9.640;2022-08-19T12:02:54;21.40;69.90
71668;DHT22;59504;54.806;9.640;2022-08-19T12:04:55;21.50;69.80
71668;DHT22;59504;54.806;9.640;2022-08-19T12:06:56;21.50;69.60
71668;DHT22;59504;54.806;9.640;2022-08-19T12:08:58;21.50;69.40
71668;DHT22;59504;54.806;9.640;2022-08-19T12:10:59;21.50;69.20
71668;DHT22;59504;54.806;9.640;2022-08-19T12:13:01;21.50;69.20
71668;DHT22;59504;54.806;9.640;2022-08-19T12:15:02;21.50;69.00
71668;DHT22;59504;54.806;9.640;2022-08-19T12:17:03;21.60;68.70
71668;DHT22;59504;54.806;9.640;2022-08-19T12:19:07;21.60;68.50
71668;DHT22;59504;54.806;9.640;2022-08-19T12:21:08;21.60;68.60
71668;DHT22;59504;54.806;9.640;2022-08-19T12:23:11;21.60;68.50
71668;DHT22;59504;54.806;9.640;2022-08-19T12:25:12;21.60;69.30
71668;DHT22;59504;54.806;9.640;2022-08-19T12:27:13;21.70;68.50
71668;DHT22;59504;54.806;9.640;2022-08-19T12:29:20;21.70;68.50
71668;DHT22;59504;54.806;9.640;2022-08-19T12:31:25;21.70;68.10
71668;DHT22;59504;54.806;9.640;2022-08-19T12:33:25;21.70;68.40
71668;DHT22;59504;54.806;9.640;2022-08-19T12:35:28;21.70;68.30
71668;DHT22;59504;54.806;9.640;2022-08-19T12:37:58;21.80;68.30
71668;DHT22;59504;54.806;9.640;2022-08-19T12:40:14;21.70;68.20
71668;DHT22;59504;54.806;9.640;2022-08-19T12:42:15;21.80;68.00
71668;DHT22;59504;54.806;9.640;2022-08-19T12:44:16;21.90;68.30
71668;DHT22;59504;54.806;9.640;2022-08-19T12:46:19;21.90;67.90
71668;DHT22;59504;54.806;9.640;2022-08-19T12:48:20;21.90;67.40
71668;DHT22;59504;54.806;9.640;2022-08-19T12:50:24;21.90;67.40
71668;DHT22;59504;54.806;9.640;2022-08-19T12:52:25;22.00;67.30
71668;DHT22;59504;54.806;9.640;2022-08-19T12:54:27;22.00;67.20
71668;DHT22;59504;54.806;9.640;2022-08-19T12:56:30;22.00;67.30
71668;DHT22;59504;54.806;9.640;2022-08-19T12:58:32;22.10;67.30
71668;DHT22;59504;54.806;9.640;2022-08-19T13:00:35;22.10;67.20
71668;DHT22;59504;54.806;9.640;2022-08-19T13:02:36;22.10;67.10
71668;DHT22;59504;54.806;9.640;2022-08-19T13:04:41;22.10;66.90
71668;DHT22;59504;54.806;9.640;2022-08-19T13:06:42;22.20;66.50
71668;DHT22;59504;54.806;9.640;2022-08-19T13:08:42;22.20;66.30
71668;DHT22;59504;54.806;9.640;2022-08-19T13:10:43;22.30;66.00
71668;DHT22;59504;54.806;9.640;2022-08-19T13:12:45;22.30;65.60
71668;DHT22;59504;54.806;9.640;2022-08-19T13:14:47;22.30;65.60
71668;DHT22;59504;54.806;9.640;2022-08-19T13:16:50;22.40;66.00
71668;DHT22;59504;54.806;9.640;2022-08-19T13:18:51;22.40;65.90
71668;DHT22;59504;54.806;9.640;2022-08-19T13:23:30;22.40;64.60
71668;DHT22;59504;54.806;9.640;2022-08-19T13:25:34;22.60;65.20
71668;DHT22;59504;54.806;9.640;2022-08-19T13:27:44;22.60;65.00
71668;DHT22;59504;54.806;9.640;2022-08-19T13:29:45;22.60;64.60
71668;DHT22;59504;54.806;9.640;2022-08-19T13:32:05;22.70;63.80
71668;DHT22;59504;54.806;9.640;2022-08-19T13:34:33;22.70;63.20
71668;DHT22;59504;54.806;9.640;2022-08-19T13:36:35;22.80;63.70
71668;DHT22;59504;54.806;9.640;2022-08-19T13:38:36;22.80;63.80
71668;DHT22;59504;54.806;9.640;2022-08-19T13:40:39;22.80;63.70
71668;DHT22;59504;54.806;9.640;2022-08-19T13:42:54;22.90;63.40
71668;DHT22;59504;54.806;9.640;2022-08-19T13:44:55;22.90;64.00
71668;DHT22;59504;54.806;9.640;2022-08-19T13:47:06;22.90;63.20
71668;DHT22;59504;54.806;9.640;2022-08-19T13:49:10;23.00;62.60
71668;DHT22;59504;54.806;9.640;2022-08-19T13:51:10;23.00;62.70